createdAt,value
2018-01-19T00:04:47.245Z,1.10
2018-01-19T00:10:15.439Z,1.00
2018-01-19T00:15:44.403Z,1.40
2018-01-19T00:21:19.707Z,1.20
2018-01-19T00:26:47.889Z,1.10
2018-01-19T00:32:16.864Z,0.97
2018-01-19T00:37:45.096Z,0.83
2018-01-19T00:43:13.302Z,1.10
2018-01-19T00:48:41.506Z,1.00
2018-01-19T00:54:10.475Z,0.97
2018-01-19T00:59:38.725Z,1.10
2018-01-19T01:05:06.921Z,1.00
2018-01-19T01:10:35.110Z,1.20
2018-01-19T01:16:04.511Z,0.80
2018-01-19T01:21:32.725Z,1.10
2018-01-19T01:27:01.158Z,0.80
2018-01-19T01:32:29.341Z,0.80
2018-01-19T01:37:57.521Z,0.80
2018-01-19T01:43:26.724Z,0.60
2018-01-19T01:49:11.983Z,0.90
2018-01-19T01:54:40.161Z,1.70
2018-01-19T02:00:08.490Z,0.90
2018-01-19T02:05:36.717Z,1.27
2018-01-19T02:11:05.226Z,0.57
2018-01-19T02:16:34.490Z,0.53
2018-01-19T02:22:02.742Z,0.70
2018-01-19T02:27:30.937Z,0.60
2018-01-19T02:32:59.121Z,0.50
2018-01-19T02:38:27.312Z,0.60
2018-01-19T02:43:56.461Z,0.63
2018-01-19T02:49:28.609Z,0.50
2018-01-19T02:54:56.788Z,0.50
2018-01-19T03:00:25.744Z,0.43
2018-01-19T03:06:07.150Z,0.53
2018-01-19T03:11:36.143Z,0.53
2018-01-19T03:17:04.368Z,0.40
2018-01-19T03:22:32.635Z,0.60
2018-01-19T03:28:01.584Z,0.50
2018-01-19T03:33:30.545Z,0.50
2018-01-19T03:39:00.987Z,0.50
2018-01-19T03:44:29.272Z,0.57
2018-01-19T03:49:58.392Z,0.50
2018-01-19T03:55:26.731Z,0.50
2018-01-19T04:00:54.927Z,0.40
2018-01-19T04:06:23.144Z,0.50
2018-01-19T04:12:17.043Z,0.70
2018-01-19T04:17:45.256Z,0.60
2018-01-19T04:23:14.227Z,0.70
2018-01-19T04:28:42.401Z,0.70
2018-01-19T04:34:10.619Z,0.40
2018-01-19T04:39:43.016Z,0.70
2018-01-19T04:45:12.048Z,0.60
2018-01-19T04:50:46.933Z,0.50
2018-01-19T04:56:15.350Z,0.50
2018-01-19T05:01:43.521Z,0.60
2018-01-19T05:07:11.913Z,0.50
2018-01-19T05:12:54.508Z,0.50
2018-01-19T05:18:22.693Z,0.40
2018-01-19T05:23:53.581Z,0.40
2018-01-19T05:29:22.628Z,0.60
2018-01-19T05:34:51.255Z,0.60
2018-01-19T05:40:19.560Z,0.80
2018-01-19T05:45:47.753Z,0.60
2018-01-19T05:51:16.715Z,0.50
2018-01-19T05:56:52.088Z,0.50
2018-01-19T06:02:21.067Z,0.50
2018-01-19T06:07:49.263Z,0.60
2018-01-19T06:13:17.466Z,0.50
2018-01-19T06:18:46.417Z,0.70
2018-01-19T06:24:15.393Z,0.60
2018-01-19T06:29:43.578Z,0.50
2018-01-19T06:35:12.517Z,0.80
2018-01-19T06:40:41.493Z,0.50
2018-01-19T06:46:09.776Z,0.67
2018-01-19T06:51:38.801Z,0.60
2018-01-19T06:57:07.829Z,0.50
2018-01-19T07:02:37.571Z,0.60
2018-01-19T07:08:05.780Z,0.60
2018-01-19T07:13:34.025Z,0.80
2018-01-19T07:19:02.821Z,0.70
2018-01-19T07:24:31.060Z,0.77
2018-01-19T07:29:59.239Z,0.70
2018-01-19T07:35:27.431Z,0.73
2018-01-19T07:40:55.621Z,0.93
2018-01-19T07:46:23.823Z,0.90
2018-01-19T07:51:52.031Z,0.80
2018-01-19T07:57:20.213Z,0.80
2018-01-19T08:02:48.439Z,0.70
2018-01-19T08:08:16.647Z,0.77
2018-01-19T08:13:44.887Z,0.77
2018-01-19T08:19:13.133Z,0.83
2018-01-19T08:24:41.342Z,0.70
2018-01-19T08:30:10.323Z,0.80
2018-01-19T08:35:38.530Z,1.37
2018-01-19T08:41:17.313Z,1.17
2018-01-19T08:46:45.506Z,0.93
2018-01-19T08:52:13.714Z,0.90
2018-01-19T08:57:42.672Z,0.83
2018-01-19T09:03:10.854Z,1.10
2018-01-19T09:08:39.050Z,1.03
2018-01-19T09:14:07.253Z,0.90
2018-01-19T09:19:35.535Z,1.03
2018-01-19T09:25:04.528Z,0.80
2018-01-19T09:30:33.048Z,1.10
2018-01-19T09:36:01.267Z,1.10
2018-01-19T09:41:29.491Z,0.97
2018-01-19T09:46:57.673Z,1.00
2018-01-19T09:52:25.884Z,1.20
2018-01-19T09:57:54.866Z,0.70
2018-01-19T10:03:23.045Z,0.83
2018-01-19T10:08:52.016Z,1.07
2018-01-19T10:14:20.222Z,0.80
2018-01-19T10:19:48.407Z,1.23
2018-01-19T10:25:16.591Z,1.73
2018-01-19T10:30:48.233Z,0.80
2018-01-19T10:36:16.403Z,0.80
2018-01-19T10:41:44.615Z,0.80
2018-01-19T10:47:12.801Z,1.10
2018-01-19T10:52:41.771Z,0.87
2018-01-19T10:58:09.945Z,0.70
2018-01-19T11:03:38.151Z,0.97
2018-01-19T11:09:06.378Z,1.43
2018-01-19T11:14:35.413Z,1.03
2018-01-19T11:20:03.673Z,1.70
2018-01-19T11:25:31.867Z,0.90
2018-01-19T11:31:00.173Z,1.17
2018-01-19T11:36:28.400Z,0.80
2018-01-19T11:41:56.624Z,0.90
2018-01-19T11:47:24.819Z,1.10
2018-01-19T11:52:53.052Z,0.80
2018-01-19T11:58:21.553Z,1.00
2018-01-19T12:03:49.735Z,0.70
2018-01-19T12:09:17.929Z,0.80
2018-01-19T12:14:46.334Z,0.80
2018-01-19T12:20:14.549Z,1.00
2018-01-19T12:25:43.523Z,0.70
2018-01-19T12:31:11.731Z,0.70
2018-01-19T12:36:40.617Z,1.20
2018-01-19T12:42:09.600Z,0.90
2018-01-19T12:47:37.793Z,1.37
2018-01-19T12:53:06.011Z,1.07
2018-01-19T12:58:34.260Z,0.93
2018-01-19T13:04:02.478Z,1.00
2018-01-19T13:09:30.748Z,1.20
2018-01-19T13:14:59.701Z,0.83
2018-01-19T13:20:35.775Z,1.17
2018-01-19T13:26:04.011Z,0.90
2018-01-19T13:31:32.206Z,0.63
2018-01-19T13:37:00.439Z,1.30
2018-01-19T13:42:28.649Z,0.90
2018-01-19T13:47:56.846Z,0.90
2018-01-19T13:53:25.057Z,0.60
2018-01-19T13:58:53.278Z,1.00
2018-01-19T14:04:21.484Z,0.90
2018-01-19T14:09:49.692Z,0.87
2018-01-19T14:15:18.641Z,0.83
2018-01-19T14:20:46.851Z,1.10
2018-01-19T14:26:15.799Z,0.80
2018-01-19T14:31:43.993Z,1.10
2018-01-19T14:37:12.169Z,1.03
2018-01-19T14:42:40.410Z,1.00
2018-01-19T14:48:08.649Z,0.70
2018-01-19T14:53:36.844Z,1.00
2018-01-19T14:59:05.110Z,1.30
2018-01-19T15:04:34.374Z,1.00
2018-01-19T15:10:02.565Z,1.43
2018-01-19T15:15:30.791Z,0.80
2018-01-19T15:20:58.982Z,1.40
2018-01-19T15:26:27.228Z,1.40
2018-01-19T15:31:55.431Z,0.90
2018-01-19T15:37:23.632Z,1.10
2018-01-19T15:42:51.825Z,1.00
2018-01-19T15:48:20.760Z,1.50
2018-01-19T15:53:49.708Z,1.20
2018-01-19T15:59:17.910Z,1.40
2018-01-19T16:04:46.916Z,2.03
2018-01-19T16:10:17.701Z,1.57
2018-01-19T16:15:46.981Z,1.80
2018-01-19T16:21:16.584Z,1.90
2018-01-19T16:26:44.991Z,1.10
2018-01-19T16:32:14.143Z,1.67
2018-01-19T16:37:42.370Z,1.27
2018-01-19T16:43:10.592Z,1.57
2018-01-19T16:48:39.732Z,2.77
2018-01-19T16:54:07.931Z,1.57
2018-01-19T16:59:36.141Z,2.20
2018-01-19T17:05:04.473Z,1.93
2018-01-19T17:10:32.695Z,2.70
2018-01-19T17:16:02.821Z,2.93
2018-01-19T17:21:31.136Z,3.40
2018-01-19T17:26:59.330Z,3.57
2018-01-19T17:32:27.715Z,7.90
2018-01-19T17:37:56.872Z,5.20
2018-01-19T17:43:25.061Z,5.50
2018-01-19T17:48:55.681Z,2.90
2018-01-19T17:54:23.878Z,2.10
2018-01-19T17:59:56.948Z,1.83
2018-01-19T18:05:27.123Z,2.10
2018-01-19T18:10:55.323Z,2.60
2018-01-19T18:16:23.513Z,3.60
2018-01-19T18:21:51.694Z,4.10
2018-01-19T18:27:19.872Z,3.20
2018-01-19T18:32:48.166Z,2.50
2018-01-19T18:38:16.427Z,2.57
2018-01-19T18:43:50.535Z,2.63
2018-01-19T18:49:19.540Z,2.90
2018-01-19T18:54:48.756Z,3.90
2018-01-19T19:00:17.012Z,4.80
2018-01-19T19:05:46.257Z,5.07
2018-01-19T19:11:14.455Z,5.07
2018-01-19T19:16:43.941Z,5.70
2018-01-19T19:22:13.595Z,6.03
2018-01-19T19:27:42.786Z,6.47
2018-01-19T19:33:11.154Z,6.80
2018-01-19T19:38:41.415Z,4.87
2018-01-19T19:44:09.629Z,3.80
2018-01-19T19:49:39.954Z,2.53
2018-01-19T19:55:08.179Z,2.80
2018-01-19T20:00:44.464Z,1.97
2018-01-19T20:06:18.802Z,3.03
2018-01-19T20:11:48.217Z,2.70
2018-01-19T20:17:17.268Z,2.17
2018-01-19T20:23:04.393Z,3.50
2018-01-19T20:28:34.708Z,2.00
2018-01-19T20:34:05.468Z,1.80
2018-01-19T20:39:34.428Z,1.90
2018-01-19T20:45:02.709Z,1.70
2018-01-19T20:50:32.245Z,1.40
2018-01-19T20:56:06.187Z,1.53
2018-01-19T21:01:34.601Z,1.40
2018-01-19T21:07:02.796Z,1.40
2018-01-19T21:12:38.512Z,1.30
2018-01-19T21:18:09.768Z,1.20
2018-01-19T21:23:38.751Z,1.10
2018-01-19T21:29:07.970Z,1.00
2018-01-19T21:34:43.073Z,1.37
2018-01-19T21:40:11.594Z,1.23
2018-01-19T21:45:54.872Z,1.13
2018-01-19T21:51:31.090Z,1.23
2018-01-19T21:57:00.097Z,1.30
2018-01-19T22:02:29.228Z,1.03
2018-01-19T22:07:59.917Z,1.10
2018-01-19T22:13:29.878Z,1.53
2018-01-19T22:18:58.188Z,1.57
2018-01-19T22:24:26.379Z,1.70
2018-01-19T22:29:54.595Z,1.10
2018-01-19T22:35:22.785Z,1.07
2018-01-19T22:40:50.966Z,1.33
2018-01-19T22:46:19.169Z,1.47
2018-01-19T22:51:55.107Z,1.60
2018-01-19T22:57:24.085Z,1.40
2018-01-19T23:02:52.296Z,1.50
2018-01-19T23:08:21.715Z,1.00
2018-01-19T23:13:49.929Z,1.70
2018-01-19T23:19:18.117Z,1.10
2018-01-19T23:24:46.337Z,1.77
2018-01-19T23:30:15.498Z,1.40
2018-01-19T23:35:48.792Z,0.87
2018-01-19T23:41:17.210Z,1.67
2018-01-19T23:46:45.412Z,1.73
2018-01-19T23:52:14.379Z,1.50
2018-01-19T23:57:42.576Z,1.23
